sensor_id;sensor_type;location;lat;lon;timestamp;temperature;humidity
33841;DHT22;20142;28.494;-16.312;2022-10-31T00:00:58;20.70;73.60
33841;DHT22;20142;28.494;-16.312;2022-10-31T00:06:00;20.90;74.30
33841;DHT22;20142;28.494;-16.312;2022-10-31T00:11:02;20.90;74.30
33841;DHT22;20142;28.494;-16.312;2022-10-31T00:16:05;20.80;74.70
33841;DHT22;20142;28.494;-16.312;2022-10-31T00:21:14;20.80;75.40
33841;DHT22;20142;28.494;-16.312;2022-10-31T00:26:17;20.70;75.50
33841;DHT22;20142;28.494;-16.312;2022-10-31T00:31:19;20.60;76.10
33841;DHT22;20142;28.494;-16.312;2022-10-31T00:36:21;20.60;76.30
33841;DHT22;20142;28.494;-16.312;2022-10-31T00:41:22;20.50;76.30
33841;DHT22;20142;28.494;-16.312;2022-10-31T00:46:24;20.50;76.50
33841;DHT22;20142;28.494;-16.312;2022-10-31T00:51:26;20.40;76.80
33841;DHT22;20142;28.494;-16.312;2022-10-31T00:56:27;20.30;76.90
33841;DHT22;20142;28.494;-16.312;2022-10-31T01:01:29;20.20;77.20
33841;DHT22;20142;28.494;-16.312;2022-10-31T01:06:30;20.20;77.50
33841;DHT22;20142;28.494;-16.312;2022-10-31T01:11:32;20.30;77.20
33841;DHT22;20142;28.494;-16.312;2022-10-31T01:16:34;20.20;77.30
33841;DHT22;20142;28.494;-16.312;2022-10-31T01:21:35;20.20;77.50
33841;DHT22;20142;28.494;-16.312;2022-10-31T01:26:37;20.20;77.40
33841;DHT22;20142;28.494;-16.312;2022-10-31T01:31:39;20.20;77.30
33841;DHT22;20142;28.494;-16.312;2022-10-31T01:36:41;20.10;77.40
33841;DHT22;20142;28.494;-16.312;2022-10-31T01:41:48;20.10;77.30
33841;DHT22;20142;28.494;-16.312;2022-10-31T01:52:10;20.00;77.00
33841;DHT22;20142;28.494;-16.312;2022-10-31T01:57:15;20.00;76.20
33841;DHT22;20142;28.494;-16.312;2022-10-31T02:02:19;19.90;75.90
33841;DHT22;20142;28.494;-16.312;2022-10-31T02:07:30;19.80;76.20
33841;DHT22;20142;28.494;-16.312;2022-10-31T02:17:48;19.90;76.60
33841;DHT22;20142;28.494;-16.312;2022-10-31T02:54:48;19.80;77.20
33841;DHT22;20142;28.494;-16.312;2022-10-31T02:59:54;19.90;77.10
33841;DHT22;20142;28.494;-16.312;2022-10-31T03:10:37;19.80;76.70
33841;DHT22;20142;28.494;-16.312;2022-10-31T03:15:55;19.70;76.90
33841;DHT22;20142;28.494;-16.312;2022-10-31T03:21:29;19.80;77.20
33841;DHT22;20142;28.494;-16.312;2022-10-31T03:26:40;19.90;77.20
33841;DHT22;20142;28.494;-16.312;2022-10-31T03:31:56;19.90;76.90
33841;DHT22;20142;28.494;-16.312;2022-10-31T03:37:03;19.90;76.90
33841;DHT22;20142;28.494;-16.312;2022-10-31T03:42:11;19.90;76.90
33841;DHT22;20142;28.494;-16.312;2022-10-31T03:47:17;19.90;76.60
33841;DHT22;20142;28.494;-16.312;2022-10-31T03:57:53;19.80;76.80
33841;DHT22;20142;28.494;-16.312;2022-10-31T04:03:10;19.60;76.90
33841;DHT22;20142;28.494;-16.312;2022-10-31T04:08:20;19.40;77.70
33841;DHT22;20142;28.494;-16.312;2022-10-31T04:13:28;19.40;77.80
33841;DHT22;20142;28.494;-16.312;2022-10-31T04:18:31;19.50;78.10
33841;DHT22;20142;28.494;-16.312;2022-10-31T04:23:34;19.40;78.10
33841;DHT22;20142;28.494;-16.312;2022-10-31T04:28:36;19.40;78.50
33841;DHT22;20142;28.494;-16.312;2022-10-31T04:33:38;19.40;78.50
33841;DHT22;20142;28.494;-16.312;2022-10-31T04:38:40;19.40;78.70
33841;DHT22;20142;28.494;-16.312;2022-10-31T04:43:41;19.50;78.50
33841;DHT22;20142;28.494;-16.312;2022-10-31T04:48:43;19.30;78.70
33841;DHT22;20142;28.494;-16.312;2022-10-31T04:53:44;19.30;78.50
33841;DHT22;20142;28.494;-16.312;2022-10-31T04:58:46;19.20;78.40
33841;DHT22;20142;28.494;-16.312;2022-10-31T05:03:48;18.80;78.90
33841;DHT22;20142;28.494;-16.312;2022-10-31T05:08:49;18.80;78.70
33841;DHT22;20142;28.494;-16.312;2022-10-31T05:13:52;18.60;79.10
33841;DHT22;20142;28.494;-16.312;2022-10-31T05:18:53;18.60;79.00
33841;DHT22;20142;28.494;-16.312;2022-10-31T05:23:55;18.50;78.80
33841;DHT22;20142;28.494;-16.312;2022-10-31T05:28:57;18.50;78.90
33841;DHT22;20142;28.494;-16.312;2022-10-31T05:33:58;18.30;79.00
33841;DHT22;20142;28.494;-16.312;2022-10-31T05:39:00;18.20;78.80
33841;DHT22;20142;28.494;-16.312;2022-10-31T05:44:02;18.20;78.70
33841;DHT22;20142;28.494;-16.312;2022-10-31T05:49:03;18.10;79.00
33841;DHT22;20142;28.494;-16.312;2022-10-31T05:54:05;18.20;78.10
33841;DHT22;20142;28.494;-16.312;2022-10-31T05:59:07;18.30;77.70
33841;DHT22;20142;28.494;-16.312;2022-10-31T06:04:08;18.30;77.60
33841;DHT22;20142;28.494;-16.312;2022-10-31T06:09:10;18.40;77.70
33841;DHT22;20142;28.494;-16.312;2022-10-31T06:14:12;18.60;77.20
33841;DHT22;20142;28.494;-16.312;2022-10-31T06:19:13;18.60;76.70
33841;DHT22;20142;28.494;-16.312;2022-10-31T06:24:15;18.60;76.00
33841;DHT22;20142;28.494;-16.312;2022-10-31T06:29:17;18.50;76.50
33841;DHT22;20142;28.494;-16.312;2022-10-31T06:34:18;18.60;76.20
33841;DHT22;20142;28.494;-16.312;2022-10-31T06:39:20;18.60;76.20
33841;DHT22;20142;28.494;-16.312;2022-10-31T06:44:21;18.70;76.30
33841;DHT22;20142;28.494;-16.312;2022-10-31T06:49:23;18.60;76.40
33841;DHT22;20142;28.494;-16.312;2022-10-31T06:54:25;18.60;76.40
33841;DHT22;20142;28.494;-16.312;2022-10-31T06:59:26;18.70;76.80
33841;DHT22;20142;28.494;-16.312;2022-10-31T07:04:28;18.80;77.30
33841;DHT22;20142;28.494;-16.312;2022-10-31T07:09:29;18.80;77.30
33841;DHT22;20142;28.494;-16.312;2022-10-31T07:14:31;18.80;77.60
33841;DHT22;20142;28.494;-16.312;2022-10-31T07:19:33;18.90;77.80
33841;DHT22;20142;28.494;-16.312;2022-10-31T07:24:34;19.00;78.10
33841;DHT22;20142;28.494;-16.312;2022-10-31T07:29:36;19.10;78.20
33841;DHT22;20142;28.494;-16.312;2022-10-31T07:34:37;19.10;78.60
33841;DHT22;20142;28.494;-16.312;2022-10-31T07:39:39;19.30;78.70
33841;DHT22;20142;28.494;-16.312;2022-10-31T07:44:41;19.20;78.80
33841;DHT22;20142;28.494;-16.312;2022-10-31T07:49:42;19.30;79.20
33841;DHT22;20142;28.494;-16.312;2022-10-31T07:54:44;19.40;79.20
33841;DHT22;20142;28.494;-16.312;2022-10-31T07:59:46;19.50;79.40
33841;DHT22;20142;28.494;-16.312;2022-10-31T08:04:47;19.60;79.50
33841;DHT22;20142;28.494;-16.312;2022-10-31T08:09:49;19.70;79.50
33841;DHT22;20142;28.494;-16.312;2022-10-31T08:14:51;19.80;79.60
33841;DHT22;20142;28.494;-16.312;2022-10-31T08:19:52;19.70;80.00
33841;DHT22;20142;28.494;-16.312;2022-10-31T08:24:54;19.80;80.30
33841;DHT22;20142;28.494;-16.312;2022-10-31T08:29:56;19.90;80.10
33841;DHT22;20142;28.494;-16.312;2022-10-31T08:34:57;20.00;80.50
33841;DHT22;20142;28.494;-16.312;2022-10-31T08:39:59;20.10;80.40
33841;DHT22;20142;28.494;-16.312;2022-10-31T08:45:01;20.20;80.70
33841;DHT22;20142;28.494;-16.312;2022-10-31T08:50:03;20.40;80.60
33841;DHT22;20142;28.494;-16.312;2022-10-31T08:55:06;20.60;80.60
33841;DHT22;20142;28.494;-16.312;2022-10-31T09:00:08;20.80;80.60
33841;DHT22;20142;28.494;-16.312;2022-10-31T09:05:10;21.00;79.90
33841;DHT22;20142;28.494;-16.312;2022-10-31T09:10:11;21.10;80.10
33841;DHT22;20142;28.494;-16.312;2022-10-31T09:15:13;21.30;80.00
33841;DHT22;20142;28.494;-16.312;2022-10-31T09:20:15;21.50;79.80
33841;DHT22;20142;28.494;-16.312;2022-10-31T09:25:17;21.70;79.90
33841;DHT22;20142;28.494;-16.312;2022-10-31T09:30:18;21.90;79.70
33841;DHT22;20142;28.494;-16.312;2022-10-31T09:35:20;22.10;79.50
33841;DHT22;20142;28.494;-16.312;2022-10-31T09:40:32;22.30;79.30
33841;DHT22;20142;28.494;-16.312;2022-10-31T09:45:58;22.40;78.90
33841;DHT22;20142;28.494;-16.312;2022-10-31T09:51:05;22.50;78.30
33841;DHT22;20142;28.494;-16.312;2022-10-31T09:56:14;22.60;78.10
33841;DHT22;20142;28.494;-16.312;2022-10-31T10:01:40;22.60;78.00
33841;DHT22;20142;28.494;-16.312;2022-10-31T10:06:47;22.80;77.30
33841;DHT22;20142;28.494;-16.312;2022-10-31T10:28:37;23.50;75.60
33841;DHT22;20142;28.494;-16.312;2022-10-31T10:34:13;23.50;75.50
33841;DHT22;20142;28.494;-16.312;2022-10-31T10:39:32;23.80;73.50
33841;DHT22;20142;28.494;-16.312;2022-10-31T10:44:42;24.00;73.80
33841;DHT22;20142;28.494;-16.312;2022-10-31T10:50:27;24.20;73.50
33841;DHT22;20142;28.494;-16.312;2022-10-31T11:01:08;24.60;72.30
33841;DHT22;20142;28.494;-16.312;2022-10-31T11:06:19;24.70;72.10
33841;DHT22;20142;28.494;-16.312;2022-10-31T11:11:28;25.10;71.90
33841;DHT22;20142;28.494;-16.312;2022-10-31T11:16:40;25.10;72.00
33841;DHT22;20142;28.494;-16.312;2022-10-31T11:21:44;25.30;71.90
33841;DHT22;20142;28.494;-16.312;2022-10-31T11:26:48;25.70;71.40
33841;DHT22;20142;28.494;-16.312;2022-10-31T11:31:56;25.90;70.70
33841;DHT22;20142;28.494;-16.312;2022-10-31T11:37:12;26.20;69.80
33841;DHT22;20142;28.494;-16.312;2022-10-31T11:42:23;26.30;69.00
33841;DHT22;20142;28.494;-16.312;2022-10-31T11:47:29;26.40;67.60
33841;DHT22;20142;28.494;-16.312;2022-10-31T11:52:32;26.40;67.70
33841;DHT22;20142;28.494;-16.312;2022-10-31T11:57:45;26.60;67.10
33841;DHT22;20142;28.494;-16.312;2022-10-31T12:02:49;26.70;66.50
33841;DHT22;20142;28.494;-16.312;2022-10-31T12:07:51;26.80;66.30
33841;DHT22;20142;28.494;-16.312;2022-10-31T12:13:36;26.80;65.50
33841;DHT22;20142;28.494;-16.312;2022-10-31T12:25:10;27.10;64.90
33841;DHT22;20142;28.494;-16.312;2022-10-31T12:36:00;27.80;63.60
33841;DHT22;20142;28.494;-16.312;2022-10-31T12:41:29;28.10;63.80
33841;DHT22;20142;28.494;-16.312;2022-10-31T12:57:47;28.00;63.70
33841;DHT22;20142;28.494;-16.312;2022-10-31T13:13:31;28.00;64.40
33841;DHT22;20142;28.494;-16.312;2022-10-31T13:18:44;28.30;64.00
33841;DHT22;20142;28.494;-16.312;2022-10-31T13:23:49;28.40;63.90
33841;DHT22;20142;28.494;-16.312;2022-10-31T13:29:11;28.40;63.70
33841;DHT22;20142;28.494;-16.312;2022-10-31T13:39:46;28.00;64.00
33841;DHT22;20142;28.494;-16.312;2022-10-31T13:44:49;28.30;63.80
33841;DHT22;20142;28.494;-16.312;2022-10-31T13:49:51;28.10;64.10
33841;DHT22;20142;28.494;-16.312;2022-10-31T13:54:53;28.00;64.10
33841;DHT22;20142;28.494;-16.312;2022-10-31T14:00:01;28.00;64.00
33841;DHT22;20142;28.494;-16.312;2022-10-31T14:10:37;28.00;63.50
33841;DHT22;20142;28.494;-16.312;2022-10-31T14:16:05;27.80;64.20
33841;DHT22;20142;28.494;-16.312;2022-10-31T14:31:36;29.30;62.50
33841;DHT22;20142;28.494;-16.312;2022-10-31T14:37:25;30.10;62.50
33841;DHT22;20142;28.494;-16.312;2022-10-31T14:42:27;31.30;62.70
33841;DHT22;20142;28.494;-16.312;2022-10-31T14:53:26;31.20;59.90
33841;DHT22;20142;28.494;-16.312;2022-10-31T15:03:44;30.80;59.70
33841;DHT22;20142;28.494;-16.312;2022-10-31T15:08:49;33.30;57.40
33841;DHT22;20142;28.494;-16.312;2022-10-31T15:13:57;36.50;53.20
33841;DHT22;20142;28.494;-16.312;2022-10-31T15:19:04;38.00;51.50
33841;DHT22;20142;28.494;-16.312;2022-10-31T15:24:13;38.70;50.70
33841;DHT22;20142;28.494;-16.312;2022-10-31T15:29:26;39.50;49.30
33841;DHT22;20142;28.494;-16.312;2022-10-31T15:34:42;40.10;48.70
33841;DHT22;20142;28.494;-16.312;2022-10-31T15:39:45;40.80;48.10
33841;DHT22;20142;28.494;-16.312;2022-10-31T15:45:12;40.50;46.50
33841;DHT22;20142;28.494;-16.312;2022-10-31T15:55:32;41.10;45.80
33841;DHT22;20142;28.494;-16.312;2022-10-31T16:00:38;41.40;45.40
33841;DHT22;20142;28.494;-16.312;2022-10-31T16:05:48;41.50;44.50
33841;DHT22;20142;28.494;-16.312;2022-10-31T16:10:51;41.60;44.30
33841;DHT22;20142;28.494;-16.312;2022-10-31T16:15:57;41.30;43.50
33841;DHT22;20142;28.494;-16.312;2022-10-31T16:21:03;40.60;43.40
33841;DHT22;20142;28.494;-16.312;2022-10-31T16:26:06;40.00;43.70
33841;DHT22;20142;28.494;-16.312;2022-10-31T16:31:13;39.50;43.60
33841;DHT22;20142;28.494;-16.312;2022-10-31T16:41:29;39.40;44.10
33841;DHT22;20142;28.494;-16.312;2022-10-31T16:46:32;39.60;43.60
33841;DHT22;20142;28.494;-16.312;2022-10-31T16:51:33;39.40;43.40
33841;DHT22;20142;28.494;-16.312;2022-10-31T16:56:36;39.40;43.00
33841;DHT22;20142;28.494;-16.312;2022-10-31T17:06:27;38.20;43.50
33841;DHT22;20142;28.494;-16.312;2022-10-31T17:11:29;37.80;43.70
33841;DHT22;20142;28.494;-16.312;2022-10-31T17:16:31;37.20;43.60
33841;DHT22;20142;28.494;-16.312;2022-10-31T17:21:33;36.90;43.30
33841;DHT22;20142;28.494;-16.312;2022-10-31T17:26:34;35.80;44.20
33841;DHT22;20142;28.494;-16.312;2022-10-31T17:31:36;34.80;44.70
33841;DHT22;20142;28.494;-16.312;2022-10-31T17:36:39;33.80;46.20
33841;DHT22;20142;28.494;-16.312;2022-10-31T17:41:41;32.30;47.50
33841;DHT22;20142;28.494;-16.312;2022-10-31T17:46:42;30.80;49.70
33841;DHT22;20142;28.494;-16.312;2022-10-31T17:51:44;29.60;51.00
33841;DHT22;20142;28.494;-16.312;2022-10-31T17:56:46;28.90;52.40
33841;DHT22;20142;28.494;-16.312;2022-10-31T18:01:47;28.30;53.20
33841;DHT22;20142;28.494;-16.312;2022-10-31T18:06:49;27.70;54.40
33841;DHT22;20142;28.494;-16.312;2022-10-31T18:11:51;27.20;55.00
33841;DHT22;20142;28.494;-16.312;2022-10-31T18:16:52;26.70;56.40
33841;DHT22;20142;28.494;-16.312;2022-10-31T18:21:54;26.40;57.40
33841;DHT22;20142;28.494;-16.312;2022-10-31T18:26:55;25.80;59.40
33841;DHT22;20142;28.494;-16.312;2022-10-31T18:31:57;25.40;60.70
33841;DHT22;20142;28.494;-16.312;2022-10-31T18:36:59;25.00;62.00
33841;DHT22;20142;28.494;-16.312;2022-10-31T18:42:00;24.90;62.80
33841;DHT22;20142;28.494;-16.312;2022-10-31T18:47:02;24.60;63.40
33841;DHT22;20142;28.494;-16.312;2022-10-31T18:52:04;24.50;64.10
33841;DHT22;20142;28.494;-16.312;2022-10-31T18:57:05;24.20;64.80
33841;DHT22;20142;28.494;-16.312;2022-10-31T19:02:09;24.00;66.00
33841;DHT22;20142;28.494;-16.312;2022-10-31T19:07:14;23.70;66.60
33841;DHT22;20142;28.494;-16.312;2022-10-31T19:12:16;23.70;67.60
33841;DHT22;20142;28.494;-16.312;2022-10-31T19:17:18;23.80;67.70
33841;DHT22;20142;28.494;-16.312;2022-10-31T19:22:19;23.70;67.90
33841;DHT22;20142;28.494;-16.312;2022-10-31T19:27:21;23.70;68.40
33841;DHT22;20142;28.494;-16.312;2022-10-31T19:32:23;23.70;69.30
33841;DHT22;20142;28.494;-16.312;2022-10-31T19:37:24;23.60;69.40
33841;DHT22;20142;28.494;-16.312;2022-10-31T19:42:26;23.50;71.20
33841;DHT22;20142;28.494;-16.312;2022-10-31T19:47:29;23.50;71.50
33841;DHT22;20142;28.494;-16.312;2022-10-31T19:52:34;23.40;71.60
33841;DHT22;20142;28.494;-16.312;2022-10-31T19:57:35;23.10;72.40
33841;DHT22;20142;28.494;-16.312;2022-10-31T20:02:37;22.90;73.30
33841;DHT22;20142;28.494;-16.312;2022-10-31T20:07:39;22.50;73.50
33841;DHT22;20142;28.494;-16.312;2022-10-31T20:12:40;22.20;75.00
33841;DHT22;20142;28.494;-16.312;2022-10-31T20:17:42;21.90;75.80
33841;DHT22;20142;28.494;-16.312;2022-10-31T20:22:44;21.90;76.70
33841;DHT22;20142;28.494;-16.312;2022-10-31T20:27:47;21.60;77.20
33841;DHT22;20142;28.494;-16.312;2022-10-31T20:32:49;21.60;78.00
33841;DHT22;20142;28.494;-16.312;2022-10-31T20:37:50;21.50;78.30
33841;DHT22;20142;28.494;-16.312;2022-10-31T20:42:52;21.10;79.00
33841;DHT22;20142;28.494;-16.312;2022-10-31T20:47:54;21.00;79.50
33841;DHT22;20142;28.494;-16.312;2022-10-31T20:52:55;21.10;80.10
33841;DHT22;20142;28.494;-16.312;2022-10-31T20:57:57;21.00;80.20
33841;DHT22;20142;28.494;-16.312;2022-10-31T21:02:59;20.90;81.00
33841;DHT22;20142;28.494;-16.312;2022-10-31T21:08:00;20.80;81.40
33841;DHT22;20142;28.494;-16.312;2022-10-31T21:13:02;21.00;81.10
33841;DHT22;20142;28.494;-16.312;2022-10-31T21:18:04;21.00;80.90
33841;DHT22;20142;28.494;-16.312;2022-10-31T21:23:06;20.90;81.20
33841;DHT22;20142;28.494;-16.312;2022-10-31T21:28:08;21.00;81.40
33841;DHT22;20142;28.494;-16.312;2022-10-31T21:33:11;21.20;81.10
33841;DHT22;20142;28.494;-16.312;2022-10-31T21:38:12;21.10;81.40
33841;DHT22;20142;28.494;-16.312;2022-10-31T21:43:14;20.90;81.20
33841;DHT22;20142;28.494;-16.312;2022-10-31T21:48:16;20.90;82.00
33841;DHT22;20142;28.494;-16.312;2022-10-31T21:53:17;21.20;81.70
33841;DHT22;20142;28.494;-16.312;2022-10-31T21:58:38;21.30;81.60
33841;DHT22;20142;28.494;-16.312;2022-10-31T22:03:40;21.40;81.50
33841;DHT22;20142;28.494;-16.312;2022-10-31T22:08:42;21.20;81.40
33841;DHT22;20142;28.494;-16.312;2022-10-31T22:13:46;21.30;81.70
33841;DHT22;20142;28.494;-16.312;2022-10-31T22:18:52;21.20;81.80
33841;DHT22;20142;28.494;-16.312;2022-10-31T22:23:57;21.10;81.80
33841;DHT22;20142;28.494;-16.312;2022-10-31T22:29:01;21.20;82.10
33841;DHT22;20142;28.494;-16.312;2022-10-31T22:34:05;21.10;81.80
33841;DHT22;20142;28.494;-16.312;2022-10-31T22:39:08;21.10;81.40
33841;DHT22;20142;28.494;-16.312;2022-10-31T22:44:10;20.90;81.70
33841;DHT22;20142;28.494;-16.312;2022-10-31T22:49:13;21.00;81.90
33841;DHT22;20142;28.494;-16.312;2022-10-31T22:54:16;20.90;81.30
33841;DHT22;20142;28.494;-16.312;2022-10-31T22:59:18;20.70;81.70
33841;DHT22;20142;28.494;-16.312;2022-10-31T23:04:20;20.60;81.80
33841;DHT22;20142;28.494;-16.312;2022-10-31T23:09:21;20.50;82.10
33841;DHT22;20142;28.494;-16.312;2022-10-31T23:14:23;20.40;81.20
33841;DHT22;20142;28.494;-16.312;2022-10-31T23:19:28;20.20;82.40
33841;DHT22;20142;28.494;-16.312;2022-10-31T23:24:40;20.40;82.20
33841;DHT22;20142;28.494;-16.312;2022-10-31T23:29:46;20.30;81.40
33841;DHT22;20142;28.494;-16.312;2022-10-31T23:34:58;20.10;81.50
33841;DHT22;20142;28.494;-16.312;2022-10-31T23:40:07;20.20;81.90
33841;DHT22;20142;28.494;-16.312;2022-10-31T23:45:09;20.10;81.20
33841;DHT22;20142;28.494;-16.312;2022-10-31T23:50:11;20.10;81.30
33841;DHT22;20142;28.494;-16.312;2022-10-31T23:55:13;20.10;81.00
